sensor_id;sensor_type;location;lat;lon;timestamp;pressure;altitude;pressure_sealevel;temperature;humidity
59831;BME280;45711;50.108;13.712;2023-01-30T00:01:45;98027.84;;;-1.57;83.83
59831;BME280;45711;50.108;13.712;2023-01-30T00:04:11;98026.50;;;-1.26;81.94
59831;BME280;45711;50.108;13.712;2023-01-30T00:06:37;98019.25;;;-1.04;83.26
59831;BME280;45711;50.108;13.712;2023-01-30T00:09:02;98013.19;;;-0.85;86.47
59831;BME280;45711;50.108;13.712;2023-01-30T00:11:28;98008.13;;;-0.80;84.87
59831;BME280;45711;50.108;13.712;2023-01-30T00:13:54;98006.72;;;-1.15;85.61
59831;BME280;45711;50.108;13.712;2023-01-30T00:16:20;98006.13;;;-0.91;84.32
59831;BME280;45711;50.108;13.712;2023-01-30T00:18:47;98013.97;;;-0.58;83.62
59831;BME280;45711;50.108;13.712;2023-01-30T00:21:13;98011.59;;;-0.99;86.88
59831;BME280;45711;50.108;13.712;2023-01-30T00:23:39;98019.81;;;-0.49;87.11
59831;BME280;45711;50.108;13.712;2023-01-30T00:26:06;98014.59;;;-0.56;82.52
59831;BME280;45711;50.108;13.712;2023-01-30T00:28:32;98005.66;;;-0.48;86.45
59831;BME280;45711;50.108;13.712;2023-01-30T00:30:58;98009.75;;;-0.92;81.95
59831;BME280;45711;50.108;13.712;2023-01-30T00:33:25;97998.59;;;-0.54;84.68
59831;BME280;45711;50.108;13.712;2023-01-30T00:35:54;97993.75;;;-0.70;85.51
59831;BME280;45711;50.108;13.712;2023-01-30T00:38:20;97978.78;;;-0.50;84.54
59831;BME280;45711;50.108;13.712;2023-01-30T00:40:46;97980.78;;;-0.39;86.03
59831;BME280;45711;50.108;13.712;2023-01-30T00:43:14;97979.38;;;-0.41;86.14
59831;BME280;45711;50.108;13.712;2023-01-30T00:45:59;97957.56;;;-0.62;83.25
59831;BME280;45711;50.108;13.712;2023-01-30T00:48:44;97966.47;;;-0.56;85.80
59831;BME280;45711;50.108;13.712;2023-01-30T00:51:11;97966.63;;;-0.44;86.21
59831;BME280;45711;50.108;13.712;2023-01-30T00:53:36;97971.72;;;-0.63;83.54
59831;BME280;45711;50.108;13.712;2023-01-30T00:56:02;97968.63;;;-0.40;84.51
59831;BME280;45711;50.108;13.712;2023-01-30T00:58:28;97967.59;;;-0.26;85.73
59831;BME280;45711;50.108;13.712;2023-01-30T01:00:53;97967.59;;;-0.26;84.79
59831;BME280;45711;50.108;13.712;2023-01-30T01:03:21;97965.38;;;-0.35;85.69
59831;BME280;45711;50.108;13.712;2023-01-30T01:05:47;97970.09;;;-0.51;84.02
59831;BME280;45711;50.108;13.712;2023-01-30T01:08:14;97969.84;;;-0.36;85.94
59831;BME280;45711;50.108;13.712;2023-01-30T01:10:39;97963.28;;;-1.11;83.58
59831;BME280;45711;50.108;13.712;2023-01-30T01:13:05;97965.31;;;-0.87;86.52
59831;BME280;45711;50.108;13.712;2023-01-30T01:15:32;97978.84;;;-0.90;86.36
59831;BME280;45711;50.108;13.712;2023-01-30T01:17:58;97961.25;;;-1.22;83.33
59831;BME280;45711;50.108;13.712;2023-01-30T01:20:24;97988.72;;;-1.05;80.90
59831;BME280;45711;50.108;13.712;2023-01-30T01:22:52;97976.38;;;-0.71;86.85
59831;BME280;45711;50.108;13.712;2023-01-30T01:25:19;97980.06;;;-0.99;85.62
59831;BME280;45711;50.108;13.712;2023-01-30T01:27:45;97989.94;;;-0.81;85.43
59831;BME280;45711;50.108;13.712;2023-01-30T01:30:12;97985.63;;;-0.49;86.80
59831;BME280;45711;50.108;13.712;2023-01-30T01:32:37;97983.03;;;-0.56;83.80
59831;BME280;45711;50.108;13.712;2023-01-30T01:35:04;97983.22;;;-0.51;84.25
59831;BME280;45711;50.108;13.712;2023-01-30T01:37:30;97990.09;;;-0.49;84.03
59831;BME280;45711;50.108;13.712;2023-01-30T01:39:56;97988.31;;;-1.42;77.55
59831;BME280;45711;50.108;13.712;2023-01-30T01:42:41;97996.00;;;-2.78;78.42
59831;BME280;45711;50.108;13.712;2023-01-30T01:45:16;97988.03;;;-3.40;80.94
59831;BME280;45711;50.108;13.712;2023-01-30T01:47:47;97973.53;;;-3.64;82.27
59831;BME280;45711;50.108;13.712;2023-01-30T01:50:17;97969.09;;;-3.64;82.88
59831;BME280;45711;50.108;13.712;2023-01-30T01:52:48;97971.03;;;-3.30;83.77
59831;BME280;45711;50.108;13.712;2023-01-30T01:55:15;97954.81;;;-3.18;81.84
59831;BME280;45711;50.108;13.712;2023-01-30T01:57:46;97956.25;;;-2.05;89.92
59831;BME280;45711;50.108;13.712;2023-01-30T02:00:16;97935.59;;;-1.40;84.81
59831;BME280;45711;50.108;13.712;2023-01-30T02:02:45;97934.97;;;-0.96;87.31
59831;BME280;45711;50.108;13.712;2023-01-30T02:05:14;97934.19;;;-1.10;85.44
59831;BME280;45711;50.108;13.712;2023-01-30T02:07:45;97922.66;;;-0.82;86.09
59831;BME280;45711;50.108;13.712;2023-01-30T02:10:14;97912.75;;;-0.87;85.84
59831;BME280;45711;50.108;13.712;2023-01-30T02:12:44;97912.31;;;-0.84;86.89
59831;BME280;45711;50.108;13.712;2023-01-30T02:15:10;97910.69;;;-0.65;84.24
59831;BME280;45711;50.108;13.712;2023-01-30T02:17:35;97916.56;;;-0.69;86.55
59831;BME280;45711;50.108;13.712;2023-01-30T02:20:04;97910.25;;;-0.55;83.92
59831;BME280;45711;50.108;13.712;2023-01-30T02:23:13;97917.56;;;-0.70;86.63
59831;BME280;45711;50.108;13.712;2023-01-30T02:26:13;97919.69;;;-0.41;86.01
59831;BME280;45711;50.108;13.712;2023-01-30T02:29:17;97901.59;;;-0.76;83.67
59831;BME280;45711;50.108;13.712;2023-01-30T02:31:53;97891.28;;;-0.70;85.81
59831;BME280;45711;50.108;13.712;2023-01-30T02:34:32;97888.59;;;-0.57;85.98
59831;BME280;45711;50.108;13.712;2023-01-30T02:37:07;97869.56;;;-0.46;86.31
59831;BME280;45711;50.108;13.712;2023-01-30T02:39:42;97858.41;;;-0.41;86.30
59831;BME280;45711;50.108;13.712;2023-01-30T02:42:14;97841.56;;;-0.72;80.21
59831;BME280;45711;50.108;13.712;2023-01-30T02:44:49;97832.91;;;-0.34;85.19
59831;BME280;45711;50.108;13.712;2023-01-30T02:47:20;97853.09;;;-0.28;83.82
59831;BME280;45711;50.108;13.712;2023-01-30T02:49:52;97850.22;;;-0.20;84.54
59831;BME280;45711;50.108;13.712;2023-01-30T02:52:21;97843.16;;;-0.64;83.20
59831;BME280;45711;50.108;13.712;2023-01-30T02:54:47;97835.38;;;-0.46;83.22
59831;BME280;45711;50.108;13.712;2023-01-30T02:57:18;97823.03;;;-0.45;81.49
59831;BME280;45711;50.108;13.712;2023-01-30T02:59:48;97813.69;;;-0.35;83.77
59831;BME280;45711;50.108;13.712;2023-01-30T03:02:31;97817.63;;;-0.57;82.12
59831;BME280;45711;50.108;13.712;2023-01-30T03:05:17;97823.84;;;-0.45;83.49
59831;BME280;45711;50.108;13.712;2023-01-30T03:07:49;97796.88;;;-0.72;81.67
59831;BME280;45711;50.108;13.712;2023-01-30T03:10:25;97840.56;;;-0.78;83.47
59831;BME280;45711;50.108;13.712;2023-01-30T03:12:58;97845.53;;;-1.28;76.91
59831;BME280;45711;50.108;13.712;2023-01-30T03:15:32;97857.16;;;-0.84;84.53
59831;BME280;45711;50.108;13.712;2023-01-30T03:18:00;97810.75;;;-1.03;81.89
59831;BME280;45711;50.108;13.712;2023-01-30T03:20:27;97838.53;;;-0.69;84.10
59831;BME280;45711;50.108;13.712;2023-01-30T03:22:53;97842.31;;;-0.58;80.93
59831;BME280;45711;50.108;13.712;2023-01-30T03:25:21;97842.75;;;-0.68;81.47
59831;BME280;45711;50.108;13.712;2023-01-30T03:27:49;97844.81;;;-0.77;84.07
59831;BME280;45711;50.108;13.712;2023-01-30T03:30:16;97840.47;;;-0.58;83.09
59831;BME280;45711;50.108;13.712;2023-01-30T03:32:42;97825.25;;;-0.42;83.78
59831;BME280;45711;50.108;13.712;2023-01-30T03:35:09;97838.09;;;-0.66;80.59
59831;BME280;45711;50.108;13.712;2023-01-30T03:37:35;97824.63;;;-0.38;84.78
59831;BME280;45711;50.108;13.712;2023-01-30T03:40:00;97814.81;;;-0.56;83.89
59831;BME280;45711;50.108;13.712;2023-01-30T03:42:26;97821.50;;;-1.31;75.30
59831;BME280;45711;50.108;13.712;2023-01-30T03:44:52;97813.31;;;-0.90;82.76
59831;BME280;45711;50.108;13.712;2023-01-30T03:47:17;97811.84;;;-0.72;81.25
59831;BME280;45711;50.108;13.712;2023-01-30T03:49:43;97808.91;;;-1.09;82.23
59831;BME280;45711;50.108;13.712;2023-01-30T03:52:10;97784.50;;;-1.16;79.76
59831;BME280;45711;50.108;13.712;2023-01-30T03:54:35;97773.84;;;-1.28;79.56
59831;BME280;45711;50.108;13.712;2023-01-30T03:57:01;97757.13;;;-1.67;84.05
59831;BME280;45711;50.108;13.712;2023-01-30T03:59:26;97747.25;;;-1.65;78.38
59831;BME280;45711;50.108;13.712;2023-01-30T04:01:52;97749.88;;;-1.58;82.87
59831;BME280;45711;50.108;13.712;2023-01-30T04:04:17;97750.06;;;-1.53;85.43
59831;BME280;45711;50.108;13.712;2023-01-30T04:06:43;97741.38;;;-1.47;82.88
59831;BME280;45711;50.108;13.712;2023-01-30T04:09:11;97732.34;;;-1.78;79.70
59831;BME280;45711;50.108;13.712;2023-01-30T04:11:37;97717.22;;;-2.15;80.12
59831;BME280;45711;50.108;13.712;2023-01-30T04:14:02;97702.72;;;-2.05;79.80
59831;BME280;45711;50.108;13.712;2023-01-30T04:16:28;97693.59;;;-1.11;85.22
59831;BME280;45711;50.108;13.712;2023-01-30T04:19:03;97689.16;;;-1.82;79.58
59831;BME280;45711;50.108;13.712;2023-01-30T04:21:29;97677.59;;;-1.54;85.19
59831;BME280;45711;50.108;13.712;2023-01-30T04:23:54;97681.00;;;-1.54;82.60
59831;BME280;45711;50.108;13.712;2023-01-30T04:26:31;97680.78;;;-0.62;86.32
59831;BME280;45711;50.108;13.712;2023-01-30T04:28:57;97675.19;;;-0.72;84.19
59831;BME280;45711;50.108;13.712;2023-01-30T04:31:22;97676.44;;;-0.43;85.05
59831;BME280;45711;50.108;13.712;2023-01-30T04:33:48;97681.22;;;-0.65;84.24
59831;BME280;45711;50.108;13.712;2023-01-30T04:36:14;97668.38;;;-0.80;85.25
59831;BME280;45711;50.108;13.712;2023-01-30T04:38:39;97676.00;;;-0.72;84.72
59831;BME280;45711;50.108;13.712;2023-01-30T04:41:05;97685.31;;;-0.44;83.95
59831;BME280;45711;50.108;13.712;2023-01-30T04:43:32;97673.38;;;-0.72;84.20
59831;BME280;45711;50.108;13.712;2023-01-30T04:45:57;97667.31;;;-0.72;85.26
59831;BME280;45711;50.108;13.712;2023-01-30T04:48:24;97666.38;;;-0.85;82.74
59831;BME280;45711;50.108;13.712;2023-01-30T04:50:51;97685.53;;;-0.46;85.60
59831;BME280;45711;50.108;13.712;2023-01-30T04:53:17;97679.66;;;-0.48;84.91
59831;BME280;45711;50.108;13.712;2023-01-30T04:55:45;97680.38;;;-0.59;84.73
59831;BME280;45711;50.108;13.712;2023-01-30T04:58:10;97680.50;;;-0.47;85.33
59831;BME280;45711;50.108;13.712;2023-01-30T05:00:37;97673.50;;;-0.60;83.36
59831;BME280;45711;50.108;13.712;2023-01-30T05:03:03;97664.28;;;-0.44;84.18
59831;BME280;45711;50.108;13.712;2023-01-30T05:05:31;97656.50;;;-0.33;85.25
59831;BME280;45711;50.108;13.712;2023-01-30T05:07:56;97658.59;;;-0.41;84.69
59831;BME280;45711;50.108;13.712;2023-01-30T05:10:22;97650.06;;;-0.37;84.23
59831;BME280;45711;50.108;13.712;2023-01-30T05:12:47;97638.00;;;-0.44;82.82
59831;BME280;45711;50.108;13.712;2023-01-30T05:15:13;97655.59;;;-0.20;84.50
59831;BME280;45711;50.108;13.712;2023-01-30T05:17:40;97642.72;;;-0.28;83.49
59831;BME280;45711;50.108;13.712;2023-01-30T05:20:08;97643.09;;;-0.24;84.48
59831;BME280;45711;50.108;13.712;2023-01-30T05:22:34;97626.66;;;-0.20;84.43
59831;BME280;45711;50.108;13.712;2023-01-30T05:25:00;97629.00;;;-0.30;83.73
59831;BME280;45711;50.108;13.712;2023-01-30T05:27:25;97625.72;;;-0.26;84.06
59831;BME280;45711;50.108;13.712;2023-01-30T05:29:51;97623.28;;;-0.27;82.39
59831;BME280;45711;50.108;13.712;2023-01-30T05:32:18;97613.16;;;-0.23;84.56
59831;BME280;45711;50.108;13.712;2023-01-30T05:34:47;97600.47;;;-0.08;84.53
59831;BME280;45711;50.108;13.712;2023-01-30T05:37:13;97586.34;;;-0.14;84.20
59831;BME280;45711;50.108;13.712;2023-01-30T05:39:38;97571.22;;;-0.18;83.97
59831;BME280;45711;50.108;13.712;2023-01-30T05:42:04;97562.00;;;-0.09;84.10
59831;BME280;45711;50.108;13.712;2023-01-30T05:44:30;97580.72;;;-0.17;84.58
59831;BME280;45711;50.108;13.712;2023-01-30T05:46:56;97587.88;;;-0.24;84.52
59831;BME280;45711;50.108;13.712;2023-01-30T05:49:22;97584.38;;;-0.18;84.40
59831;BME280;45711;50.108;13.712;2023-01-30T05:51:49;97578.28;;;-0.62;83.90
59831;BME280;45711;50.108;13.712;2023-01-30T05:54:15;97573.94;;;-0.50;85.42
59831;BME280;45711;50.108;13.712;2023-01-30T05:56:41;97585.09;;;-0.30;83.68
59831;BME280;45711;50.108;13.712;2023-01-30T05:59:08;97585.94;;;-0.36;82.33
59831;BME280;45711;50.108;13.712;2023-01-30T06:01:35;97571.16;;;-0.30;83.47
59831;BME280;45711;50.108;13.712;2023-01-30T06:04:00;97564.75;;;-0.41;84.53
59831;BME280;45711;50.108;13.712;2023-01-30T06:06:27;97556.31;;;-1.24;83.26
59831;BME280;45711;50.108;13.712;2023-01-30T06:08:55;97551.28;;;-1.26;85.62
59831;BME280;45711;50.108;13.712;2023-01-30T06:11:21;97551.28;;;-0.69;86.31
59831;BME280;45711;50.108;13.712;2023-01-30T06:13:47;97550.53;;;-0.33;84.99
59831;BME280;45711;50.108;13.712;2023-01-30T06:16:15;97539.31;;;-0.90;81.63
59831;BME280;45711;50.108;13.712;2023-01-30T06:18:41;97534.88;;;-0.65;87.10
59831;BME280;45711;50.108;13.712;2023-01-30T06:21:08;97537.25;;;-0.63;83.49
59831;BME280;45711;50.108;13.712;2023-01-30T06:23:33;97534.25;;;-0.42;83.87
59831;BME280;45711;50.108;13.712;2023-01-30T06:26:01;97524.28;;;-0.58;81.68
59831;BME280;45711;50.108;13.712;2023-01-30T06:28:27;97530.03;;;-0.68;85.05
59831;BME280;45711;50.108;13.712;2023-01-30T06:30:52;97524.94;;;-0.44;84.12
59831;BME280;45711;50.108;13.712;2023-01-30T06:33:18;97531.47;;;-0.29;84.02
59831;BME280;45711;50.108;13.712;2023-01-30T06:35:47;97531.91;;;-0.32;84.10
59831;BME280;45711;50.108;13.712;2023-01-30T06:38:13;97516.94;;;-0.13;85.10
59831;BME280;45711;50.108;13.712;2023-01-30T06:40:39;97518.09;;;-0.45;85.67
59831;BME280;45711;50.108;13.712;2023-01-30T06:43:06;97525.00;;;-0.26;85.07
59831;BME280;45711;50.108;13.712;2023-01-30T06:45:32;97524.00;;;-0.13;83.97
59831;BME280;45711;50.108;13.712;2023-01-30T06:47:57;97528.19;;;-0.24;85.01
59831;BME280;45711;50.108;13.712;2023-01-30T06:50:24;97525.28;;;-0.16;85.15
59831;BME280;45711;50.108;13.712;2023-01-30T06:52:51;97528.03;;;-0.11;85.02
59831;BME280;45711;50.108;13.712;2023-01-30T06:55:18;97544.19;;;-0.07;84.69
59831;BME280;45711;50.108;13.712;2023-01-30T06:57:45;97542.66;;;-0.15;85.03
59831;BME280;45711;50.108;13.712;2023-01-30T07:00:14;97520.34;;;-0.31;84.92
59831;BME280;45711;50.108;13.712;2023-01-30T07:02:40;97522.50;;;-0.03;85.05
59831;BME280;45711;50.108;13.712;2023-01-30T07:05:07;97516.06;;;-0.07;84.81
59831;BME280;45711;50.108;13.712;2023-01-30T07:07:33;97511.91;;;-0.14;83.81
59831;BME280;45711;50.108;13.712;2023-01-30T07:10:00;97523.38;;;-0.09;84.32
59831;BME280;45711;50.108;13.712;2023-01-30T07:12:26;97505.53;;;-0.07;84.29
59831;BME280;45711;50.108;13.712;2023-01-30T07:14:52;97483.56;;;-0.12;85.24
59831;BME280;45711;50.108;13.712;2023-01-30T07:17:20;97481.44;;;-0.04;84.88
59831;BME280;45711;50.108;13.712;2023-01-30T07:19:46;97477.78;;;-0.03;84.89
59831;BME280;45711;50.108;13.712;2023-01-30T07:22:12;97456.91;;;-0.16;84.92
59831;BME280;45711;50.108;13.712;2023-01-30T07:24:37;97428.34;;;-0.01;85.02
59831;BME280;45711;50.108;13.712;2023-01-30T07:27:05;97457.66;;;0.03;84.91
59831;BME280;45711;50.108;13.712;2023-01-30T07:29:31;97455.16;;;0.08;84.38
59831;BME280;45711;50.108;13.712;2023-01-30T07:31:56;97455.09;;;0.15;84.11
59831;BME280;45711;50.108;13.712;2023-01-30T07:34:23;97443.47;;;0.04;84.06
59831;BME280;45711;50.108;13.712;2023-01-30T07:36:49;97444.06;;;0.06;84.23
59831;BME280;45711;50.108;13.712;2023-01-30T07:39:15;97441.56;;;0.11;84.64
59831;BME280;45711;50.108;13.712;2023-01-30T07:41:40;97439.38;;;0.08;84.60
59831;BME280;45711;50.108;13.712;2023-01-30T07:44:06;97444.56;;;0.15;84.56
59831;BME280;45711;50.108;13.712;2023-01-30T07:46:31;97440.78;;;0.11;84.73
59831;BME280;45711;50.108;13.712;2023-01-30T07:48:59;97457.00;;;0.08;84.59
59831;BME280;45711;50.108;13.712;2023-01-30T07:51:26;97461.31;;;0.02;84.27
59831;BME280;45711;50.108;13.712;2023-01-30T07:53:52;97459.59;;;-0.04;84.78
59831;BME280;45711;50.108;13.712;2023-01-30T07:56:17;97455.47;;;0.18;84.24
59831;BME280;45711;50.108;13.712;2023-01-30T07:58:44;97448.25;;;-0.05;83.81
59831;BME280;45711;50.108;13.712;2023-01-30T08:01:10;97471.22;;;-0.30;84.17
59831;BME280;45711;50.108;13.712;2023-01-30T08:03:36;97463.47;;;-0.25;84.43
59831;BME280;45711;50.108;13.712;2023-01-30T08:06:01;97463.41;;;-0.37;84.56
59831;BME280;45711;50.108;13.712;2023-01-30T08:08:28;97454.03;;;-0.14;85.49
59831;BME280;45711;50.108;13.712;2023-01-30T08:10:54;97456.28;;;0.01;85.10
59831;BME280;45711;50.108;13.712;2023-01-30T08:13:19;97452.53;;;0.08;84.75
59831;BME280;45711;50.108;13.712;2023-01-30T08:15:45;97469.47;;;0.12;84.34
59831;BME280;45711;50.108;13.712;2023-01-30T08:18:11;97476.56;;;0.12;84.64
59831;BME280;45711;50.108;13.712;2023-01-30T08:20:36;97485.13;;;0.07;84.87
59831;BME280;45711;50.108;13.712;2023-01-30T08:23:02;97483.59;;;-0.01;84.35
59831;BME280;45711;50.108;13.712;2023-01-30T08:25:29;97481.81;;;0.00;84.01
59831;BME280;45711;50.108;13.712;2023-01-30T08:27:58;97479.44;;;0.10;84.19
59831;BME280;45711;50.108;13.712;2023-01-30T08:30:24;97474.88;;;0.17;83.81
59831;BME280;45711;50.108;13.712;2023-01-30T08:32:50;97468.97;;;0.22;84.51
59831;BME280;45711;50.108;13.712;2023-01-30T08:35:16;97458.53;;;0.15;84.53
59831;BME280;45711;50.108;13.712;2023-01-30T08:37:42;97450.56;;;0.22;84.35
59831;BME280;45711;50.108;13.712;2023-01-30T08:40:09;97454.00;;;0.22;84.70
59831;BME280;45711;50.108;13.712;2023-01-30T08:42:36;97465.69;;;0.27;84.41
59831;BME280;45711;50.108;13.712;2023-01-30T08:45:01;97451.13;;;0.24;84.50
59831;BME280;45711;50.108;13.712;2023-01-30T08:47:27;97464.19;;;0.31;84.45
59831;BME280;45711;50.108;13.712;2023-01-30T08:49:53;97453.53;;;0.25;84.15
59831;BME280;45711;50.108;13.712;2023-01-30T08:52:18;97454.69;;;0.30;84.64
59831;BME280;45711;50.108;13.712;2023-01-30T08:54:44;97457.97;;;0.25;84.43
59831;BME280;45711;50.108;13.712;2023-01-30T08:57:10;97454.19;;;0.21;84.76
59831;BME280;45711;50.108;13.712;2023-01-30T08:59:37;97452.94;;;0.23;85.04
59831;BME280;45711;50.108;13.712;2023-01-30T09:02:03;97455.34;;;0.25;85.00
59831;BME280;45711;50.108;13.712;2023-01-30T09:04:28;97447.00;;;0.28;84.98
59831;BME280;45711;50.108;13.712;2023-01-30T09:06:54;97443.78;;;0.26;84.84
59831;BME280;45711;50.108;13.712;2023-01-30T09:09:20;97462.56;;;0.30;84.83
59831;BME280;45711;50.108;13.712;2023-01-30T09:11:45;97463.28;;;0.37;84.57
59831;BME280;45711;50.108;13.712;2023-01-30T09:14:12;97455.28;;;0.32;84.92
59831;BME280;45711;50.108;13.712;2023-01-30T09:16:39;97463.06;;;0.38;84.62
59831;BME280;45711;50.108;13.712;2023-01-30T09:19:04;97465.03;;;0.43;84.51
59831;BME280;45711;50.108;13.712;2023-01-30T09:21:30;97462.38;;;0.43;84.63
59831;BME280;45711;50.108;13.712;2023-01-30T09:23:56;97454.38;;;0.38;84.30
59831;BME280;45711;50.108;13.712;2023-01-30T09:26:22;97456.13;;;0.44;84.65
59831;BME280;45711;50.108;13.712;2023-01-30T09:28:47;97451.34;;;0.53;83.91
59831;BME280;45711;50.108;13.712;2023-01-30T09:31:13;97452.25;;;0.58;83.89
59831;BME280;45711;50.108;13.712;2023-01-30T09:33:40;97457.16;;;0.55;84.24
59831;BME280;45711;50.108;13.712;2023-01-30T09:36:07;97451.53;;;0.51;84.10
59831;BME280;45711;50.108;13.712;2023-01-30T09:38:32;97458.47;;;0.34;84.95
59831;BME280;45711;50.108;13.712;2023-01-30T09:41:07;97454.59;;;0.36;85.12
59831;BME280;45711;50.108;13.712;2023-01-30T09:43:47;97447.88;;;0.40;85.08
59831;BME280;45711;50.108;13.712;2023-01-30T09:46:27;97443.94;;;0.31;85.95
59831;BME280;45711;50.108;13.712;2023-01-30T09:49:03;97436.84;;;0.32;86.63
59831;BME280;45711;50.108;13.712;2023-01-30T09:51:39;97429.09;;;0.37;85.52
59831;BME280;45711;50.108;13.712;2023-01-30T09:54:22;97427.38;;;0.42;85.43
59831;BME280;45711;50.108;13.712;2023-01-30T09:56:55;97428.16;;;0.43;85.58
59831;BME280;45711;50.108;13.712;2023-01-30T09:59:26;97422.81;;;0.49;84.90
59831;BME280;45711;50.108;13.712;2023-01-30T10:01:59;97419.75;;;0.53;84.57
59831;BME280;45711;50.108;13.712;2023-01-30T10:04:33;97419.28;;;0.56;84.37
59831;BME280;45711;50.108;13.712;2023-01-30T10:07:05;97416.41;;;0.45;85.73
59831;BME280;45711;50.108;13.712;2023-01-30T10:09:41;97407.13;;;0.55;84.61
59831;BME280;45711;50.108;13.712;2023-01-30T10:12:23;97408.84;;;0.61;85.19
59831;BME280;45711;50.108;13.712;2023-01-30T10:15:08;97405.53;;;0.54;85.23
59831;BME280;45711;50.108;13.712;2023-01-30T10:17:55;97401.44;;;0.58;85.06
59831;BME280;45711;50.108;13.712;2023-01-30T10:20:33;97397.00;;;0.70;85.65
59831;BME280;45711;50.108;13.712;2023-01-30T10:23:21;97396.03;;;0.64;84.52
59831;BME280;45711;50.108;13.712;2023-01-30T10:25:54;97380.84;;;0.66;84.67
59831;BME280;45711;50.108;13.712;2023-01-30T10:28:23;97376.72;;;0.70;84.42
59831;BME280;45711;50.108;13.712;2023-01-30T10:30:54;97372.38;;;0.76;83.85
59831;BME280;45711;50.108;13.712;2023-01-30T10:33:25;97360.09;;;0.82;83.84
59831;BME280;45711;50.108;13.712;2023-01-30T10:36:00;97357.47;;;0.82;84.00
59831;BME280;45711;50.108;13.712;2023-01-30T10:38:33;97357.47;;;0.82;83.85
59831;BME280;45711;50.108;13.712;2023-01-30T10:41:05;97370.75;;;0.87;84.41
59831;BME280;45711;50.108;13.712;2023-01-30T10:43:37;97369.38;;;0.84;84.36
59831;BME280;45711;50.108;13.712;2023-01-30T10:46:20;97362.06;;;0.74;84.94
59831;BME280;45711;50.108;13.712;2023-01-30T10:48:54;97349.69;;;0.63;84.73
59831;BME280;45711;50.108;13.712;2023-01-30T10:51:32;97355.16;;;0.73;84.35
59831;BME280;45711;50.108;13.712;2023-01-30T10:54:04;97353.56;;;0.72;84.63
59831;BME280;45711;50.108;13.712;2023-01-30T10:56:39;97366.97;;;0.83;84.87
59831;BME280;45711;50.108;13.712;2023-01-30T10:59:20;97364.34;;;0.83;84.27
59831;BME280;45711;50.108;13.712;2023-01-30T11:01:56;97349.56;;;0.82;84.48
59831;BME280;45711;50.108;13.712;2023-01-30T11:04:28;97338.56;;;0.85;84.24
59831;BME280;45711;50.108;13.712;2023-01-30T11:06:58;97347.41;;;0.79;84.55
59831;BME280;45711;50.108;13.712;2023-01-30T11:09:36;97339.97;;;0.87;83.99
59831;BME280;45711;50.108;13.712;2023-01-30T11:12:02;97336.06;;;0.90;83.97
59831;BME280;45711;50.108;13.712;2023-01-30T11:14:28;97329.16;;;1.12;83.55
59831;BME280;45711;50.108;13.712;2023-01-30T11:16:56;97331.44;;;1.20;83.61
59831;BME280;45711;50.108;13.712;2023-01-30T11:19:24;97330.19;;;1.11;82.88
59831;BME280;45711;50.108;13.712;2023-01-30T11:22:01;97322.81;;;1.25;83.66
59831;BME280;45711;50.108;13.712;2023-01-30T11:24:29;97308.75;;;1.08;82.83
59831;BME280;45711;50.108;13.712;2023-01-30T11:26:55;97316.75;;;1.13;83.03
59831;BME280;45711;50.108;13.712;2023-01-30T11:29:33;97302.94;;;0.94;83.44
59831;BME280;45711;50.108;13.712;2023-01-30T11:32:01;97310.41;;;0.97;83.98
59831;BME280;45711;50.108;13.712;2023-01-30T11:34:29;97309.47;;;1.03;83.42
59831;BME280;45711;50.108;13.712;2023-01-30T11:37:14;97299.69;;;1.15;83.40
59831;BME280;45711;50.108;13.712;2023-01-30T11:39:49;97306.09;;;1.19;82.60
59831;BME280;45711;50.108;13.712;2023-01-30T11:42:18;97304.84;;;1.22;82.32
59831;BME280;45711;50.108;13.712;2023-01-30T11:44:44;97307.59;;;1.27;82.34
59831;BME280;45711;50.108;13.712;2023-01-30T11:47:17;97297.88;;;1.16;82.76
59831;BME280;45711;50.108;13.712;2023-01-30T11:49:48;97292.72;;;1.09;83.20
59831;BME280;45711;50.108;13.712;2023-01-30T11:52:22;97291.25;;;1.13;82.76
59831;BME280;45711;50.108;13.712;2023-01-30T11:54:49;97289.06;;;1.10;83.11
59831;BME280;45711;50.108;13.712;2023-01-30T11:57:17;97291.69;;;1.10;83.63
59831;BME280;45711;50.108;13.712;2023-01-30T11:59:45;97285.56;;;1.21;83.32
59831;BME280;45711;50.108;13.712;2023-01-30T12:02:15;97284.56;;;1.22;82.96
59831;BME280;45711;50.108;13.712;2023-01-30T12:04:44;97277.22;;;1.13;83.42
59831;BME280;45711;50.108;13.712;2023-01-30T12:07:18;97261.81;;;1.05;83.52
59831;BME280;45711;50.108;13.712;2023-01-30T12:09:45;97269.38;;;1.01;83.97
59831;BME280;45711;50.108;13.712;2023-01-30T12:12:29;97279.41;;;1.16;83.56
59831;BME280;45711;50.108;13.712;2023-01-30T12:15:02;97271.75;;;1.14;83.18
59831;BME280;45711;50.108;13.712;2023-01-30T12:17:35;97276.25;;;1.02;83.74
59831;BME280;45711;50.108;13.712;2023-01-30T12:20:11;97277.03;;;1.14;83.89
59831;BME280;45711;50.108;13.712;2023-01-30T12:22:45;97266.50;;;1.03;83.49
59831;BME280;45711;50.108;13.712;2023-01-30T12:25:15;97283.34;;;1.02;84.20
59831;BME280;45711;50.108;13.712;2023-01-30T12:27:51;97280.47;;;1.03;84.26
59831;BME280;45711;50.108;13.712;2023-01-30T12:30:25;97274.75;;;1.06;83.86
59831;BME280;45711;50.108;13.712;2023-01-30T12:32:55;97266.84;;;1.06;84.35
59831;BME280;45711;50.108;13.712;2023-01-30T12:35:28;97259.72;;;1.18;83.29
59831;BME280;45711;50.108;13.712;2023-01-30T12:38:03;97256.59;;;1.21;83.34
59831;BME280;45711;50.108;13.712;2023-01-30T12:40:43;97266.34;;;1.21;83.34
59831;BME280;45711;50.108;13.712;2023-01-30T12:43:36;97266.03;;;1.06;84.10
59831;BME280;45711;50.108;13.712;2023-01-30T12:46:14;97273.16;;;1.05;84.21
59831;BME280;45711;50.108;13.712;2023-01-30T12:48:55;97256.84;;;1.08;84.08
59831;BME280;45711;50.108;13.712;2023-01-30T12:51:39;97270.97;;;1.02;84.58
59831;BME280;45711;50.108;13.712;2023-01-30T12:54:19;97272.31;;;1.16;84.36
59831;BME280;45711;50.108;13.712;2023-01-30T12:56:54;97271.25;;;1.29;83.57
59831;BME280;45711;50.108;13.712;2023-01-30T12:59:29;97261.22;;;1.14;83.79
59831;BME280;45711;50.108;13.712;2023-01-30T13:02:20;97269.66;;;1.16;84.57
59831;BME280;45711;50.108;13.712;2023-01-30T13:05:05;97279.06;;;1.12;83.94
59831;BME280;45711;50.108;13.712;2023-01-30T13:07:40;97306.25;;;1.01;84.37